Perryville, Texas
Current Conditions -  °F | °C
As of 8:15 PM on Saturday 25 Oct 2014 (Local Time) from KOSA Reporting Station
Clear Clear  
Wind Chill: 71°   Ceiling: Unl
Heat Index: 71°   Visibility: 10mi
Dew Point: 65°   Wind: 0mph
Humidity: 81%   Direction: NA
Pressure: 30.07"   Gusts: NA
Location:  32.7353°N, 94.9492°W
Report Text: KOSA 260115Z AUTO 00000KT 10SM CLR 22/19 A3007 RMK AO1 T02180185
Loading
Personal Weather Stations






























Interactive Weather Map
Tropical Storm Tracking
New forecast layout! Learn more

10-Day Weather Forecast

Advertisements
Track Severe Weather on mobile